createdAt,value
2023-05-23T00:00:00.660Z,76.2
2023-05-23T00:01:00.612Z,76.2
2023-05-23T00:02:00.685Z,76.2
2023-05-23T00:03:00.705Z,76.2
2023-05-23T00:04:00.799Z,76.2
2023-05-23T00:05:00.615Z,76.2
2023-05-23T00:06:00.615Z,76.2
2023-05-23T00:07:00.609Z,76.2
2023-05-23T00:08:00.645Z,76.2
2023-05-23T00:09:00.624Z,76.2
2023-05-23T00:10:00.650Z,76.2
2023-05-23T00:11:00.655Z,76.2
2023-05-23T00:12:00.633Z,76.5
2023-05-23T00:13:00.642Z,76.8
2023-05-23T00:14:00.639Z,76.8
2023-05-23T00:15:00.630Z,76.9
2023-05-23T00:16:00.631Z,76.8
2023-05-23T00:17:00.689Z,76.8
2023-05-23T00:18:00.852Z,76.8
2023-05-23T00:19:00.691Z,77.2
2023-05-23T00:20:00.641Z,76.8
2023-05-23T00:21:00.910Z,77.1
2023-05-23T00:22:00.652Z,77.2
2023-05-23T00:23:00.637Z,77.5
2023-05-23T00:24:00.631Z,76.8
2023-05-23T00:25:00.642Z,77.5
2023-05-23T00:26:00.669Z,77.1
2023-05-23T00:27:00.642Z,76.8
2023-05-23T00:28:00.655Z,77.1
2023-05-23T00:29:00.650Z,76.8
2023-05-23T00:30:00.730Z,77.1
2023-05-23T00:31:00.692Z,76.8
2023-05-23T00:32:00.682Z,76.5
2023-05-23T00:33:00.745Z,76.5
2023-05-23T00:34:00.662Z,76.2
2023-05-23T00:35:00.661Z,76.5
2023-05-23T00:36:00.723Z,76.5
2023-05-23T00:37:00.665Z,76.2
2023-05-23T00:38:00.687Z,76.5
2023-05-23T00:39:00.653Z,76.8
2023-05-23T00:40:00.654Z,76.2
2023-05-23T00:41:00.663Z,76.2
2023-05-23T00:42:00.655Z,76.2
2023-05-23T00:43:00.661Z,76.2
2023-05-23T00:44:00.651Z,76.5
2023-05-23T00:45:00.681Z,76.2
2023-05-23T00:46:00.725Z,76.2
2023-05-23T00:47:00.677Z,76.5
2023-05-23T00:48:00.725Z,76.8
2023-05-23T00:49:00.684Z,76.8
2023-05-23T00:50:00.682Z,76.8
2023-05-23T00:51:00.720Z,77.4
2023-05-23T00:52:00.668Z,77.4
2023-05-23T00:53:00.674Z,77.4
2023-05-23T00:54:00.735Z,78.1
2023-05-23T00:55:00.682Z,78.1
2023-05-23T00:56:00.683Z,78.1
2023-05-23T00:57:00.681Z,78
2023-05-23T00:58:00.697Z,78.4
2023-05-23T00:59:00.695Z,78.1
2023-05-23T01:00:00.704Z,78
2023-05-23T01:01:00.676Z,78
2023-05-23T01:02:00.747Z,78.1
2023-05-23T01:03:00.726Z,78.4
2023-05-23T01:04:00.707Z,78
2023-05-23T01:05:00.702Z,78.4
2023-05-23T01:06:00.685Z,78.4
2023-05-23T01:07:00.703Z,78.4
2023-05-23T01:08:00.691Z,78.1
2023-05-23T01:09:00.683Z,78
2023-05-23T01:10:00.732Z,78.1
2023-05-23T01:11:00.685Z,78.4
2023-05-23T01:12:00.688Z,78.1
2023-05-23T01:13:00.691Z,78.4
2023-05-23T01:14:00.692Z,78.4
2023-05-23T01:15:00.735Z,78.4
2023-05-23T01:16:02.931Z,78.7
2023-05-23T01:17:00.695Z,78.7
2023-05-23T01:18:00.726Z,78.7
2023-05-23T01:19:00.723Z,78.7
2023-05-23T01:20:00.731Z,78.7
2023-05-23T01:21:00.699Z,78.7
2023-05-23T01:22:00.696Z,79
2023-05-23T01:23:00.696Z,79.3
2023-05-23T01:24:00.706Z,78.7
2023-05-23T01:25:00.751Z,78.7
2023-05-23T01:26:00.700Z,78.7
2023-05-23T01:27:00.706Z,78.7
2023-05-23T01:28:00.690Z,78.7
2023-05-23T01:29:00.744Z,78.7
2023-05-23T01:30:00.757Z,78.4
2023-05-23T01:31:00.726Z,78.4
2023-05-23T01:32:00.786Z,78.1
2023-05-23T01:33:00.777Z,78.4
2023-05-23T01:34:00.709Z,78.7
2023-05-23T01:35:00.651Z,78.1
2023-05-23T01:36:00.640Z,78.1
2023-05-23T01:37:00.597Z,77.7
2023-05-23T01:38:00.560Z,77.4
2023-05-23T01:39:00.538Z,77.4
2023-05-23T01:40:00.550Z,77.4
2023-05-23T01:41:00.491Z,77.4
2023-05-23T01:42:00.449Z,76.8
2023-05-23T01:43:00.442Z,77.1
2023-05-23T01:44:00.407Z,76.9
2023-05-23T01:45:00.368Z,76.8
2023-05-23T01:46:00.372Z,76.5
2023-05-23T01:47:00.357Z,76.8
2023-05-23T01:48:00.445Z,76.2
2023-05-23T01:49:00.363Z,76.2
2023-05-23T01:50:00.378Z,76.5
2023-05-23T01:51:00.340Z,76.1
2023-05-23T01:52:00.354Z,76.1
2023-05-23T01:53:00.346Z,76.8
2023-05-23T01:54:00.361Z,76.4
2023-05-23T01:55:00.360Z,76.8
2023-05-23T01:56:00.346Z,76.8
2023-05-23T01:57:00.352Z,76.8
2023-05-23T01:58:00.362Z,76.4
2023-05-23T01:59:00.356Z,76.4
2023-05-23T02:00:00.371Z,76.4
2023-05-23T02:01:02.180Z,76.8
2023-05-23T02:02:02.237Z,76.8
2023-05-23T02:03:02.239Z,76.8
2023-05-23T02:04:02.160Z,76.8
2023-05-23T02:05:02.175Z,76.9
2023-05-23T02:06:02.166Z,76.8
2023-05-23T02:07:02.166Z,76.4
2023-05-23T02:08:02.176Z,76.7
2023-05-23T02:09:02.173Z,76.7
2023-05-23T02:10:02.350Z,76.4
2023-05-23T02:11:02.163Z,76.1
2023-05-23T02:12:02.166Z,76.1
2023-05-23T02:13:02.160Z,76.7
2023-05-23T02:14:02.157Z,76.1
2023-05-23T02:15:02.187Z,76.1
2023-05-23T02:16:02.164Z,76.1
2023-05-23T02:17:02.250Z,76.1
2023-05-23T02:18:02.372Z,76.1
2023-05-23T02:19:02.267Z,76.1
2023-05-23T02:20:02.313Z,76.1
2023-05-23T02:21:02.186Z,75.8
2023-05-23T02:22:02.220Z,75.8
2023-05-23T02:23:02.169Z,75.8
2023-05-23T02:24:02.219Z,75.5
2023-05-23T02:25:02.199Z,76.1
2023-05-23T02:26:02.175Z,75.4
2023-05-23T02:27:02.202Z,76.1
2023-05-23T02:28:02.224Z,76.1
2023-05-23T02:29:02.224Z,75.8
2023-05-23T02:30:02.334Z,75.4
2023-05-23T02:31:02.240Z,76.1
2023-05-23T02:32:02.232Z,75.8
2023-05-23T02:33:02.195Z,75.8
2023-05-23T02:34:02.189Z,76.4
2023-05-23T02:35:02.208Z,76.4
2023-05-23T02:36:02.241Z,76.1
2023-05-23T02:37:02.190Z,76.1
2023-05-23T02:38:02.241Z,76.1
2023-05-23T02:39:02.189Z,76
2023-05-23T02:40:02.313Z,76.1
2023-05-23T02:41:02.207Z,76.1
2023-05-23T02:42:02.189Z,75.7
2023-05-23T02:43:02.220Z,75.7
2023-05-23T02:44:02.200Z,76
2023-05-23T02:45:02.236Z,75.7
2023-05-23T02:46:02.220Z,75.4
2023-05-23T02:47:02.208Z,75.4
2023-05-23T02:48:02.221Z,75.7
2023-05-23T02:49:02.240Z,75.4
2023-05-23T02:50:02.290Z,75.4
2023-05-23T02:51:02.216Z,75.4
2023-05-23T02:52:02.234Z,75.4
2023-05-23T02:53:02.227Z,75.4
2023-05-23T02:54:02.280Z,75.4
2023-05-23T02:55:02.231Z,75.4
2023-05-23T02:56:02.233Z,75.3
2023-05-23T02:57:02.219Z,75.4
2023-05-23T02:58:02.215Z,75.4
2023-05-23T02:59:02.228Z,75.7
2023-05-23T03:00:02.542Z,75.4
2023-05-23T03:01:02.230Z,75.4
2023-05-23T03:02:02.261Z,75.4
2023-05-23T03:03:02.315Z,75.4
2023-05-23T03:04:02.298Z,75.4
2023-05-23T03:05:02.365Z,75.4
2023-05-23T03:06:02.235Z,75.3
2023-05-23T03:07:02.967Z,75.4
2023-05-23T03:08:02.235Z,76
2023-05-23T03:09:02.229Z,76
2023-05-23T03:10:02.334Z,76
2023-05-23T03:11:02.242Z,76
2023-05-23T03:12:02.230Z,76
2023-05-23T03:13:02.221Z,76
2023-05-23T03:14:02.295Z,76
2023-05-23T03:15:02.316Z,76.3
2023-05-23T03:16:02.340Z,76
2023-05-23T03:17:02.249Z,76.6
2023-05-23T03:18:02.276Z,76.6
2023-05-23T03:19:02.311Z,76.2
2023-05-23T03:20:02.564Z,76.3
2023-05-23T03:21:02.312Z,76.6
2023-05-23T03:22:02.314Z,76.6
2023-05-23T03:23:02.252Z,76.6
2023-05-23T03:24:02.312Z,77.2
2023-05-23T03:25:02.348Z,76.5
2023-05-23T03:26:02.364Z,76.8
2023-05-23T03:27:02.516Z,76.5
2023-05-23T03:28:02.263Z,76.8
2023-05-23T03:29:02.252Z,77.1
2023-05-23T03:30:02.371Z,77.1
2023-05-23T03:31:02.252Z,77.1
2023-05-23T03:32:02.326Z,77.1
2023-05-23T03:33:02.345Z,77.1
2023-05-23T03:34:02.273Z,77.1
2023-05-23T03:35:02.247Z,77.1
2023-05-23T03:36:02.363Z,77.1
2023-05-23T03:37:02.335Z,77.4
2023-05-23T03:38:02.280Z,77.7
2023-05-23T03:39:02.277Z,77.7
2023-05-23T03:40:02.688Z,77.7
2023-05-23T03:41:02.253Z,77.7
2023-05-23T03:42:02.268Z,77.7
2023-05-23T03:43:02.255Z,77.7
2023-05-23T03:44:02.290Z,77.1
2023-05-23T03:45:02.288Z,77.7
2023-05-23T03:46:02.284Z,77.7
2023-05-23T03:47:02.262Z,78.3
2023-05-23T03:48:02.303Z,77.7
2023-05-23T03:49:02.299Z,78
2023-05-23T03:50:02.348Z,77.7
2023-05-23T03:51:02.272Z,78.3
2023-05-23T03:52:02.269Z,78
2023-05-23T03:53:02.289Z,78.3
2023-05-23T03:54:02.287Z,78.3
2023-05-23T03:55:02.284Z,78.3
2023-05-23T03:56:02.270Z,78.3
2023-05-23T03:57:02.278Z,77.7
2023-05-23T03:58:02.333Z,77.7
2023-05-23T03:59:02.282Z,77.7
2023-05-23T04:00:02.313Z,77.7
2023-05-23T04:01:02.372Z,77.7
2023-05-23T04:02:02.305Z,77.7
2023-05-23T04:03:02.400Z,77.4
2023-05-23T04:04:02.457Z,77.7
2023-05-23T04:05:02.277Z,78.3
2023-05-23T04:06:02.294Z,78.3
2023-05-23T04:07:02.316Z,78.3
2023-05-23T04:08:02.297Z,78.3
2023-05-23T04:09:02.270Z,78.3
2023-05-23T04:10:02.283Z,78.3
2023-05-23T04:11:02.297Z,78.3
2023-05-23T04:12:02.322Z,78
2023-05-23T04:13:02.328Z,78.3
2023-05-23T04:14:02.287Z,79
2023-05-23T04:15:02.380Z,78.3
2023-05-23T04:16:02.401Z,78.3
2023-05-23T04:17:02.299Z,78.3
2023-05-23T04:18:02.332Z,78.3
2023-05-23T04:19:04.189Z,78.3
2023-05-23T04:20:02.294Z,78.3
2023-05-23T04:21:02.285Z,78
2023-05-23T04:22:02.331Z,78.3
2023-05-23T04:23:02.335Z,79
2023-05-23T04:24:02.311Z,78.3
2023-05-23T04:25:02.305Z,79
2023-05-23T04:26:02.333Z,78.7
2023-05-23T04:27:02.317Z,78.7
2023-05-23T04:28:02.306Z,78.3
2023-05-23T04:29:02.302Z,78.7
2023-05-23T04:30:02.349Z,79
2023-05-23T04:31:02.368Z,79.6
2023-05-23T04:32:02.341Z,79.3
2023-05-23T04:33:02.355Z,79.6
2023-05-23T04:34:02.325Z,78.7
2023-05-23T04:35:02.332Z,79.3
2023-05-23T04:36:02.311Z,79.6
2023-05-23T04:37:02.317Z,79.7
2023-05-23T04:38:02.321Z,79
2023-05-23T04:39:02.330Z,79
2023-05-23T04:40:02.341Z,78.7
2023-05-23T04:41:02.329Z,79
2023-05-23T04:42:02.324Z,79.4
2023-05-23T04:43:02.325Z,80
2023-05-23T04:44:02.319Z,80.3
2023-05-23T04:45:02.471Z,79.7
2023-05-23T04:46:02.341Z,79.1
2023-05-23T04:47:02.423Z,78.8
2023-05-23T04:48:02.359Z,78.4
2023-05-23T04:49:02.361Z,78.1
2023-05-23T04:50:02.345Z,77.8
2023-05-23T04:51:02.376Z,79.4
2023-05-23T04:52:02.338Z,79.7
2023-05-23T04:53:02.344Z,80.4
2023-05-23T04:54:02.346Z,80.4
2023-05-23T04:55:02.362Z,80.4
2023-05-23T04:56:02.338Z,81
2023-05-23T04:57:02.337Z,79.7
2023-05-23T04:58:02.336Z,79.1
2023-05-23T04:59:02.344Z,78.8
2023-05-23T05:00:02.345Z,78.5
2023-05-23T05:01:02.382Z,79.2
2023-05-23T05:02:02.358Z,80.5
2023-05-23T05:03:02.404Z,80.4
2023-05-23T05:04:02.424Z,80.1
2023-05-23T05:05:02.344Z,79.5
2023-05-23T05:06:02.340Z,79.2
2023-05-23T05:07:02.362Z,78.8
2023-05-23T05:08:02.365Z,78.6
2023-05-23T05:09:02.388Z,78.6
2023-05-23T05:10:02.380Z,80.5
2023-05-23T05:11:02.348Z,80.8
2023-05-23T05:12:02.357Z,80.8
2023-05-23T05:13:02.347Z,80.5
2023-05-23T05:14:02.349Z,81.1
2023-05-23T05:15:02.353Z,79.9
2023-05-23T05:16:02.360Z,79.2
2023-05-23T05:17:02.400Z,78.9
2023-05-23T05:18:02.489Z,78.9
2023-05-23T05:19:02.371Z,79.6
2023-05-23T05:20:02.361Z,79.3
2023-05-23T05:21:02.373Z,78.6
2023-05-23T05:22:02.353Z,78.6
2023-05-23T05:23:02.388Z,78.6
2023-05-23T05:24:02.353Z,79.6
2023-05-23T05:25:02.380Z,80.6
2023-05-23T05:26:02.394Z,81.2
2023-05-23T05:27:02.361Z,79.9
2023-05-23T05:28:02.359Z,80.6
2023-05-23T05:29:02.383Z,79.9
2023-05-23T05:30:02.376Z,79.3
2023-05-23T05:31:02.413Z,78.3
2023-05-23T05:32:02.362Z,78.7
2023-05-23T05:33:02.409Z,78.4
2023-05-23T05:34:02.388Z,78.1
2023-05-23T05:35:02.402Z,78.7
2023-05-23T05:36:02.421Z,78.4
2023-05-23T05:37:02.422Z,78.1
2023-05-23T05:38:02.377Z,78.4
2023-05-23T05:39:02.394Z,78.1
2023-05-23T05:40:02.393Z,78.4
2023-05-23T05:41:02.381Z,78.4
2023-05-23T05:42:02.395Z,78.1
2023-05-23T05:43:02.407Z,78.1
2023-05-23T05:44:02.375Z,78.1
2023-05-23T05:45:02.372Z,78.1
2023-05-23T05:46:02.479Z,78.8
2023-05-23T05:47:02.385Z,79.1
2023-05-23T05:48:02.446Z,79.4
2023-05-23T05:49:02.413Z,78.8
2023-05-23T05:50:02.408Z,78.5
2023-05-23T05:51:02.393Z,78.2
2023-05-23T05:52:02.390Z,78.2
2023-05-23T05:53:02.426Z,78.5
2023-05-23T05:54:02.418Z,78.2
2023-05-23T05:55:02.435Z,77.9
2023-05-23T05:56:02.400Z,77.5
2023-05-23T05:57:02.408Z,77.6
2023-05-23T05:58:02.414Z,77.2
2023-05-23T05:59:02.402Z,76.9
2023-05-23T06:00:02.414Z,77.6
2023-05-23T06:01:02.405Z,76.9
2023-05-23T06:02:02.423Z,76.6
2023-05-23T06:03:02.511Z,76.3
2023-05-23T06:04:02.688Z,76.3
2023-05-23T06:05:02.468Z,76.6
2023-05-23T06:06:02.443Z,76.3
2023-05-23T06:07:02.437Z,76.3
2023-05-23T06:08:02.409Z,76.3
2023-05-23T06:09:02.426Z,76.3
2023-05-23T06:10:02.431Z,76.7
2023-05-23T06:11:02.413Z,76.3
2023-05-23T06:12:02.414Z,76
2023-05-23T06:13:02.424Z,75.7
2023-05-23T06:14:02.424Z,75.1
2023-05-23T06:15:02.444Z,75.1
2023-05-23T06:16:02.573Z,76.4
2023-05-23T06:17:02.470Z,76.4
2023-05-23T06:18:02.547Z,76.4
2023-05-23T06:19:02.492Z,75.7
2023-05-23T06:20:02.474Z,75.8
2023-05-23T06:21:02.471Z,75.7
2023-05-23T06:22:02.417Z,75.4
2023-05-23T06:23:02.464Z,75.1
2023-05-23T06:24:02.504Z,75.8
2023-05-23T06:25:02.465Z,75.8
2023-05-23T06:26:02.515Z,75.1
2023-05-23T06:27:02.496Z,74.8
2023-05-23T06:28:02.466Z,74.5
2023-05-23T06:29:02.474Z,74.5
2023-05-23T06:30:02.451Z,74.5
2023-05-23T06:31:02.487Z,74.2
2023-05-23T06:32:02.561Z,73.9
2023-05-23T06:33:02.493Z,73.9
2023-05-23T06:34:02.499Z,73.9
2023-05-23T06:35:02.495Z,73.6
2023-05-23T06:36:02.480Z,73.9
2023-05-23T06:37:02.516Z,73.6
2023-05-23T06:38:02.464Z,73.6
2023-05-23T06:39:02.510Z,73.9
2023-05-23T06:40:02.518Z,73.9
2023-05-23T06:41:02.445Z,73.9
2023-05-23T06:42:02.494Z,73.9
2023-05-23T06:43:02.505Z,73.9
2023-05-23T06:44:02.579Z,73.9
2023-05-23T06:45:02.542Z,74.3
2023-05-23T06:46:02.529Z,73.9
2023-05-23T06:47:02.565Z,74
2023-05-23T06:48:02.630Z,73.3
2023-05-23T06:49:14.437Z,73.6
2023-05-23T06:50:02.514Z,73.3
2023-05-23T06:51:02.502Z,72.7
2023-05-23T06:52:02.577Z,73
2023-05-23T06:53:02.514Z,72.7
2023-05-23T06:54:02.501Z,72.7
2023-05-23T06:55:02.521Z,72.7
2023-05-23T06:56:02.553Z,72.7
2023-05-23T06:57:02.487Z,72.7
2023-05-23T06:58:02.526Z,72.1
2023-05-23T06:59:02.466Z,71.5
2023-05-23T07:00:02.470Z,72.1
2023-05-23T07:01:02.576Z,72.1
2023-05-23T07:02:02.491Z,72.1
2023-05-23T07:03:02.520Z,71.5
2023-05-23T07:04:02.484Z,71.5
2023-05-23T07:05:02.582Z,71.2
2023-05-23T07:06:02.507Z,71.2
2023-05-23T07:07:02.496Z,70.9
2023-05-23T07:08:02.491Z,70.9
2023-05-23T07:09:02.481Z,69.9
2023-05-23T07:10:02.499Z,70.3
2023-05-23T07:11:02.482Z,69.6
2023-05-23T07:12:02.487Z,69.6
2023-05-23T07:13:02.498Z,70.3
2023-05-23T07:14:02.497Z,69.6
2023-05-23T07:15:02.493Z,69.7
2023-05-23T07:16:02.490Z,69.7
2023-05-23T07:17:02.555Z,69.7
2023-05-23T07:18:02.577Z,69.3
2023-05-23T07:19:02.494Z,68.7
2023-05-23T07:20:02.514Z,68.7
2023-05-23T07:21:02.497Z,69
2023-05-23T07:22:02.501Z,69
2023-05-23T07:23:02.486Z,68.7
2023-05-23T07:24:02.485Z,68.7
2023-05-23T07:25:02.555Z,68.7
2023-05-23T07:26:03.306Z,69
2023-05-23T07:27:02.490Z,69
2023-05-23T07:28:02.488Z,67.8
2023-05-23T07:29:02.496Z,67.8
2023-05-23T07:30:02.534Z,68.1
2023-05-23T07:31:02.540Z,68.1
2023-05-23T07:32:02.496Z,68.4
2023-05-23T07:33:02.556Z,68.4
2023-05-23T07:34:02.587Z,69
2023-05-23T07:35:00.409Z,68.7
2023-05-23T07:36:00.432Z,68.4
2023-05-23T07:37:00.431Z,68.4
2023-05-23T07:38:00.403Z,69
2023-05-23T07:39:00.404Z,68.4
2023-05-23T07:40:00.418Z,68.4
2023-05-23T07:41:10.894Z,68.7
2023-05-23T07:42:00.406Z,68.4
2023-05-23T07:43:00.439Z,69
2023-05-23T07:44:00.431Z,69.3
2023-05-23T07:45:00.410Z,69
2023-05-23T07:46:00.490Z,68.7
2023-05-23T07:47:00.595Z,68.4
2023-05-23T07:48:00.478Z,69
2023-05-23T07:49:00.431Z,69.2
2023-05-23T07:50:00.430Z,68.7
2023-05-23T07:51:00.439Z,68.4
2023-05-23T07:52:00.438Z,68.4
2023-05-23T07:53:00.408Z,68.4
2023-05-23T07:54:00.402Z,67.8
2023-05-23T07:55:00.442Z,68.4
2023-05-23T07:56:00.411Z,68.4
2023-05-23T07:57:00.410Z,68.1
2023-05-23T07:58:00.424Z,67.8
2023-05-23T07:59:00.427Z,66.5
2023-05-23T08:00:00.440Z,65.9
2023-05-23T08:01:00.410Z,66.5
2023-05-23T08:02:00.456Z,66.5
2023-05-23T08:03:00.461Z,66.2
2023-05-23T08:04:00.636Z,66.5
2023-05-23T08:05:00.465Z,66.7
2023-05-23T08:06:00.443Z,66.2
2023-05-23T08:07:05.511Z,66.5
2023-05-23T08:08:00.444Z,66.5
2023-05-23T08:09:00.428Z,66.5
2023-05-23T08:10:00.487Z,66.5
2023-05-23T08:11:00.444Z,65.9
2023-05-23T08:12:00.697Z,65.9
2023-05-23T08:13:00.485Z,65.9
2023-05-23T08:14:01.574Z,65.6
2023-05-23T08:15:00.460Z,65.3
2023-05-23T08:16:00.522Z,65.3
2023-05-23T08:17:00.580Z,64.4
2023-05-23T08:18:00.516Z,64.4
2023-05-23T08:19:00.616Z,63.4
2023-05-23T08:20:00.458Z,64.4
2023-05-23T08:21:00.459Z,64.1
2023-05-23T08:22:00.454Z,62.8
2023-05-23T08:23:00.462Z,63.4
2023-05-23T08:24:00.467Z,64.1
2023-05-23T08:25:00.462Z,63.4
2023-05-23T08:26:00.462Z,63.4
2023-05-23T08:27:00.450Z,63.4
2023-05-23T08:28:00.471Z,63.8
2023-05-23T08:29:00.459Z,62.8
2023-05-23T08:30:00.546Z,62.8
2023-05-23T08:31:00.449Z,62.8
2023-05-23T08:32:00.501Z,61.5
2023-05-23T08:33:00.503Z,61.5
2023-05-23T08:34:00.488Z,61.9
2023-05-23T08:35:00.497Z,62.2
2023-05-23T08:36:00.460Z,61.6
2023-05-23T08:37:00.490Z,60.9
2023-05-23T08:38:01.486Z,60.3
2023-05-23T08:39:00.479Z,60.9
2023-05-23T08:40:00.526Z,60.3
2023-05-23T08:41:00.479Z,60.3
2023-05-23T08:42:00.463Z,61
2023-05-23T08:43:00.504Z,61
2023-05-23T08:44:00.469Z,61.3
2023-05-23T08:45:00.469Z,61
2023-05-23T08:46:00.522Z,60.4
2023-05-23T08:47:00.492Z,60.7
2023-05-23T08:48:00.553Z,59.7
2023-05-23T08:49:00.475Z,57.8
2023-05-23T08:50:00.508Z,58.8
2023-05-23T08:51:00.499Z,58.4
2023-05-23T08:52:00.507Z,58.4
2023-05-23T08:53:00.471Z,58.4
2023-05-23T08:54:00.480Z,59.1
2023-05-23T08:55:00.474Z,57.8
2023-05-23T08:56:00.476Z,57.8
2023-05-23T08:57:00.486Z,57.1
2023-05-23T08:58:00.692Z,57.1
2023-05-23T08:59:00.484Z,57.4
2023-05-23T09:00:00.507Z,58.1
2023-05-23T09:01:00.483Z,58.4
2023-05-23T09:02:00.711Z,58.4
2023-05-23T09:03:00.524Z,58.4
2023-05-23T09:04:00.506Z,58.7
2023-05-23T09:05:00.552Z,59.3
2023-05-23T09:06:00.541Z,59.6
2023-05-23T09:07:00.515Z,59.6
2023-05-23T09:08:00.498Z,59.6
2023-05-23T09:09:00.513Z,59.6
2023-05-23T09:10:00.529Z,59.3
2023-05-23T09:11:00.487Z,59
2023-05-23T09:12:00.515Z,60
2023-05-23T09:13:00.771Z,60
2023-05-23T09:14:00.504Z,59.7
2023-05-23T09:15:00.497Z,59.7
2023-05-23T09:16:00.581Z,59
2023-05-23T09:17:02.485Z,59.1
2023-05-23T09:18:00.532Z,59.7
2023-05-23T09:19:00.536Z,60.4
2023-05-23T09:20:00.531Z,59.7
2023-05-23T09:21:00.504Z,60.4
2023-05-23T09:22:00.543Z,59.5
2023-05-23T09:23:03.577Z,56.6
2023-05-23T09:24:00.517Z,55.9
2023-05-23T09:25:00.635Z,56.6
2023-05-23T09:26:00.527Z,57.2
2023-05-23T09:27:00.516Z,57.2
2023-05-23T09:28:00.515Z,56.6
2023-05-23T09:29:00.517Z,57.2
2023-05-23T09:30:00.921Z,57.9
2023-05-23T09:31:00.523Z,56.9
2023-05-23T09:32:00.611Z,56.9
2023-05-23T09:33:03.896Z,57.2
2023-05-23T09:34:00.553Z,57.8
2023-05-23T09:35:00.564Z,58.1
2023-05-23T09:36:00.546Z,58.5
2023-05-23T09:37:00.535Z,58.5
2023-05-23T09:38:00.534Z,58.4
2023-05-23T09:39:02.714Z,58.4
2023-05-23T09:40:00.790Z,59.1
2023-05-23T09:41:00.531Z,59.7
2023-05-23T09:42:00.555Z,60.3
2023-05-23T09:43:00.560Z,60.3
2023-05-23T09:44:00.579Z,60.3
2023-05-23T09:45:03.198Z,60.3
2023-05-23T09:46:00.541Z,60.3
2023-05-23T09:47:00.593Z,61
2023-05-23T09:48:00.622Z,61
2023-05-23T09:49:00.547Z,60.6
2023-05-23T09:50:00.567Z,60
2023-05-23T09:51:02.890Z,59
2023-05-23T09:52:00.559Z,58.4
2023-05-23T09:53:00.535Z,58.7
2023-05-23T09:54:00.565Z,58.4
2023-05-23T09:55:00.588Z,58.4
2023-05-23T09:56:00.558Z,58.4
2023-05-23T09:57:00.566Z,58.4
2023-05-23T09:58:00.559Z,58.3
2023-05-23T09:59:00.544Z,59
2023-05-23T10:00:00.637Z,59
2023-05-23T10:01:00.593Z,59
2023-05-23T10:02:00.548Z,59.6
2023-05-23T10:03:00.572Z,59.6
2023-05-23T10:04:00.771Z,59.3
2023-05-23T10:05:00.571Z,59.6
2023-05-23T10:06:00.559Z,60.2
2023-05-23T10:07:00.584Z,60.9
2023-05-23T10:08:00.553Z,60.2
2023-05-23T10:09:00.561Z,59.6
2023-05-23T10:10:00.724Z,60.2
2023-05-23T10:11:00.559Z,59.6
2023-05-23T10:12:00.560Z,59.6
2023-05-23T10:13:00.558Z,60.2
2023-05-23T10:14:00.557Z,60.2
2023-05-23T10:15:00.606Z,60.2
2023-05-23T10:16:00.568Z,60.5
2023-05-23T10:17:00.573Z,60.2
2023-05-23T10:18:00.622Z,60.2
2023-05-23T10:19:00.597Z,60.2
2023-05-23T10:20:00.626Z,60.7
2023-05-23T10:21:00.590Z,60.9
2023-05-23T10:22:00.577Z,60.9
2023-05-23T10:23:00.565Z,61.2
2023-05-23T10:24:00.585Z,60.6
2023-05-23T10:25:00.599Z,59.7
2023-05-23T10:26:00.575Z,59
2023-05-23T10:27:00.564Z,58.7
2023-05-23T10:28:03.915Z,57.8
2023-05-23T10:29:00.597Z,57.5
2023-05-23T10:30:00.620Z,57.4
2023-05-23T10:31:00.698Z,56.8
2023-05-23T10:32:00.593Z,57.8
2023-05-23T10:33:00.649Z,55.6
2023-05-23T10:34:00.632Z,55.9
2023-05-23T10:35:00.611Z,55.3
2023-05-23T10:36:00.632Z,54.3
2023-05-23T10:37:00.628Z,55.3
2023-05-23T10:38:00.574Z,55.3
2023-05-23T10:39:00.625Z,53.4
2023-05-23T10:40:00.725Z,53.4
2023-05-23T10:41:00.618Z,53.7
2023-05-23T10:42:00.649Z,53.7
2023-05-23T10:43:00.626Z,54.7
2023-05-23T10:44:00.660Z,52.8
2023-05-23T10:45:01.481Z,52.2
2023-05-23T10:46:00.739Z,50.9
2023-05-23T10:47:00.635Z,51.5
2023-05-23T10:48:00.638Z,51.5
2023-05-23T10:49:00.666Z,51.5
2023-05-23T10:50:00.766Z,51.5
2023-05-23T10:51:00.642Z,51.5
2023-05-23T10:52:00.628Z,52.5
2023-05-23T10:53:00.608Z,52.1
2023-05-23T10:54:00.627Z,50.9
2023-05-23T10:55:00.859Z,50.2
2023-05-23T10:56:00.633Z,51.8
2023-05-23T10:57:00.637Z,49.6
2023-05-23T10:58:00.626Z,49.3
2023-05-23T10:59:00.629Z,50.9
2023-05-23T11:00:00.880Z,50.2
2023-05-23T11:01:00.707Z,49.6
2023-05-23T11:02:00.659Z,48.9
2023-05-23T11:03:00.885Z,49.6
2023-05-23T11:04:00.929Z,50.2
2023-05-23T11:05:00.785Z,50.2
2023-05-23T11:06:00.629Z,49.2
2023-05-23T11:07:00.648Z,48.9
2023-05-23T11:08:00.626Z,50.2
2023-05-23T11:09:00.634Z,48.9
2023-05-23T11:10:00.676Z,47.6
2023-05-23T11:11:00.627Z,47
2023-05-23T11:12:00.620Z,46.7
2023-05-23T11:13:00.622Z,47.3
2023-05-23T11:14:00.925Z,47
2023-05-23T11:15:00.682Z,47.9
2023-05-23T11:16:00.648Z,48.9
2023-05-23T11:17:00.764Z,48.9
2023-05-23T11:18:00.642Z,48.9
2023-05-23T11:19:00.699Z,48.9
2023-05-23T11:20:00.726Z,49.2
2023-05-23T11:21:00.637Z,50.2
2023-05-23T11:22:00.724Z,50.9
2023-05-23T11:23:00.637Z,50.9
2023-05-23T11:24:00.653Z,51.9
2023-05-23T11:25:00.644Z,52.9
2023-05-23T11:26:00.651Z,53.5
2023-05-23T11:27:00.644Z,53.9
2023-05-23T11:28:00.652Z,52.9
2023-05-23T11:29:00.668Z,51.3
2023-05-23T11:30:00.712Z,51.6
2023-05-23T11:31:00.706Z,51.7
2023-05-23T11:32:00.715Z,51.6
2023-05-23T11:33:00.753Z,52.3
2023-05-23T11:34:00.688Z,51.3
2023-05-23T11:35:00.655Z,51.9
2023-05-23T11:36:00.694Z,52.2
2023-05-23T11:37:00.650Z,52.6
2023-05-23T11:38:00.652Z,52.5
2023-05-23T11:39:00.677Z,53.6
2023-05-23T11:40:00.680Z,53.5
2023-05-23T11:41:00.667Z,53.5
2023-05-23T11:42:00.658Z,53.8
2023-05-23T11:43:00.696Z,53.5
2023-05-23T11:44:00.696Z,53.5
2023-05-23T11:45:00.711Z,54.2
2023-05-23T11:46:00.703Z,52.5
2023-05-23T11:47:00.720Z,52.1
2023-05-23T11:48:00.671Z,52.8
2023-05-23T11:49:00.693Z,53.7
2023-05-23T11:50:00.722Z,54.4
2023-05-23T11:51:00.697Z,53.4
2023-05-23T11:52:00.694Z,54.1
2023-05-23T11:53:00.696Z,55.1
2023-05-23T11:54:00.686Z,56
2023-05-23T11:55:03.690Z,56.6
2023-05-23T11:56:00.862Z,56.6
2023-05-23T11:57:00.671Z,57.3
2023-05-23T11:58:00.676Z,57.9
2023-05-23T11:59:00.734Z,57.9
2023-05-23T12:00:00.746Z,57.9
2023-05-23T12:01:00.682Z,58.5
2023-05-23T12:02:00.750Z,58.8
2023-05-23T12:03:00.798Z,59.1
2023-05-23T12:04:00.726Z,59.1
2023-05-23T12:05:00.833Z,59.1
2023-05-23T12:06:00.699Z,59.4
2023-05-23T12:07:00.712Z,59.8
2023-05-23T12:08:00.707Z,60.1
2023-05-23T12:09:00.675Z,60.4
2023-05-23T12:10:00.827Z,61
2023-05-23T12:11:00.680Z,61
2023-05-23T12:12:00.688Z,61.6
2023-05-23T12:13:00.706Z,61.6
2023-05-23T12:14:00.733Z,61.9
2023-05-23T12:15:00.709Z,62.2
2023-05-23T12:16:00.801Z,62.3
2023-05-23T12:17:00.702Z,62.2
2023-05-23T12:18:00.841Z,61.6
2023-05-23T12:19:00.817Z,61.6
2023-05-23T12:20:00.707Z,61.6
2023-05-23T12:21:00.726Z,62.2
2023-05-23T12:22:00.687Z,62.4
2023-05-23T12:23:00.692Z,62.2
2023-05-23T12:24:00.686Z,62.2
2023-05-23T12:25:00.699Z,62.2
2023-05-23T12:26:00.687Z,62.2
2023-05-23T12:27:00.700Z,61.2
2023-05-23T12:28:00.740Z,58.9
2023-05-23T12:29:00.704Z,58.3
2023-05-23T12:30:00.730Z,58.3
2023-05-23T12:31:00.777Z,59.6
2023-05-23T12:32:00.701Z,59.6
2023-05-23T12:33:00.761Z,58.7
2023-05-23T12:34:00.708Z,58.9
2023-05-23T12:35:00.761Z,59.9
2023-05-23T12:36:00.708Z,58.6
2023-05-23T12:37:14.870Z,58.9
2023-05-23T12:38:00.706Z,58.3
2023-05-23T12:39:00.724Z,58.3
2023-05-23T12:40:00.759Z,58
2023-05-23T12:41:00.709Z,57.6
2023-05-23T12:42:00.735Z,58.3
2023-05-23T12:43:00.726Z,58.3
2023-05-23T12:44:00.722Z,58.6
2023-05-23T12:45:00.718Z,59.6
2023-05-23T12:46:00.725Z,58.9
2023-05-23T12:47:00.876Z,58.9
2023-05-23T12:48:00.766Z,59.6
2023-05-23T12:49:00.751Z,60.9
2023-05-23T12:50:00.762Z,60.9
2023-05-23T12:51:00.742Z,60.9
2023-05-23T12:52:00.743Z,61.5
2023-05-23T12:53:00.750Z,61.5
2023-05-23T12:54:00.725Z,61.9
2023-05-23T12:55:00.735Z,62.2
2023-05-23T12:56:00.729Z,61.8
2023-05-23T12:57:00.745Z,62.2
2023-05-23T12:58:00.766Z,62.2
2023-05-23T12:59:00.766Z,61.9
2023-05-23T13:00:00.750Z,61.9
2023-05-23T13:01:00.764Z,62.2
2023-05-23T13:02:00.787Z,62.5
2023-05-23T13:03:00.774Z,62.2
2023-05-23T13:04:00.827Z,62.5
2023-05-23T13:05:00.813Z,62.8
2023-05-23T13:06:00.792Z,62.8
2023-05-23T13:07:00.773Z,62.8
2023-05-23T13:08:00.771Z,62.8
2023-05-23T13:09:00.749Z,62.8
2023-05-23T13:10:00.824Z,63.1
2023-05-23T13:11:00.773Z,63.1
2023-05-23T13:12:00.748Z,62.8
2023-05-23T13:13:00.771Z,62.8
2023-05-23T13:14:00.771Z,62.5
2023-05-23T13:15:00.747Z,62.2
2023-05-23T13:16:00.797Z,62.5
2023-05-23T13:17:01.100Z,62.2
2023-05-23T13:18:00.808Z,62.2
2023-05-23T13:19:00.901Z,62.2
2023-05-23T13:20:00.762Z,62.2
2023-05-23T13:21:00.755Z,62.5
2023-05-23T13:22:00.757Z,62.9